Time;durP1;ratioP1;P1;durP2;ratioP2;P2;SDS_P1;SDS_P2;PMS_P1;PMS_P2;Temp;Humidity;BMP_temperature;BMP_pressure;BME280_temperature;BME280_humidity;BME280_pressure;Samples;Min_cycle;Max_cycle;Signal;HPM_P1;HPM_P2
2023/01/17 00:00:26;;;;;;;1.55;1.45;;;3.80;99.90;;;;;;5039268;28;20274;-80
2023/01/17 00:02:54;;;;;;;1.35;0.90;;;3.70;99.90;;;;;;5039449;28;20198;-80
2023/01/17 00:10:49;;;;;;;5.30;1.42;;;3.70;99.90;;;;;;5038391;28;20302;-80
2023/01/17 00:13:16;;;;;;;2.55;2.35;;;3.70;99.90;;;;;;5038176;28;20242;-79
2023/01/17 00:15:43;;;;;;;0.63;0.63;;;3.60;99.90;;;;;;5038109;28;20230;-80
2023/01/17 00:18:11;;;;;;;0.50;0.40;;;3.60;99.90;;;;;;5037800;28;20205;-81
2023/01/17 00:26:23;;;;;;;2.55;0.93;;;3.60;99.90;;;;;;5015609;28;20204;-79
2023/01/17 01:35:46;;;;;;;0.55;0.55;;;3.10;99.90;;;;;;5036343;28;20226;-80
2023/01/17 01:38:14;;;;;;;1.23;1.15;;;3.10;99.90;;;;;;5037029;28;20222;-78
2023/01/17 01:40:43;;;;;;;1.00;0.95;;;3.10;99.90;;;;;;5036526;28;20213;-80
2023/01/17 01:43:12;;;;;;;0.50;0.40;;;3.20;99.90;;;;;;5036353;28;20278;-81
2023/01/17 01:45:39;;;;;;;0.50;0.40;;;3.20;99.90;;;;;;5036681;28;20215;-80
2023/01/17 01:48:21;;;;;;;0.70;0.70;;;3.20;99.90;;;;;;5037119;28;20294;-81
2023/01/17 01:50:49;;;;;;;0.50;0.40;;;3.10;99.90;;;;;;5037005;28;20204;-81
2023/01/17 01:53:19;;;;;;;0.75;0.70;;;3.10;99.90;;;;;;5036819;28;20234;-82
2023/01/17 01:55:48;;;;;;;0.57;0.57;;;3.10;99.90;;;;;;5036440;28;20215;-82
2023/01/17 01:58:20;;;;;;;1.85;0.90;;;3.10;99.90;;;;;;5036573;28;20567;-79
2023/01/17 02:00:47;;;;;;;0.82;0.82;;;3.00;99.90;;;;;;5036515;28;20625;-81
2023/01/17 02:03:17;;;;;;;0.63;0.63;;;3.00;99.90;;;;;;5036522;28;20206;-80
2023/01/17 02:05:45;;;;;;;1.70;1.40;;;3.10;99.90;;;;;;5035457;28;20289;-81
2023/01/17 02:08:14;;;;;;;1.73;1.25;;;3.10;99.90;;;;;;5035674;28;20703;-82
2023/01/17 02:10:43;;;;;;;0.50;0.50;;;3.10;99.90;;;;;;5036183;28;20286;-81
2023/01/17 02:13:12;;;;;;;0.82;0.77;;;3.10;99.90;;;;;;5036401;28;20203;-81
2023/01/17 02:15:45;;;;;;;1.42;0.93;;;3.10;99.90;;;;;;5036174;28;20231;-81
2023/01/17 02:18:21;;;;;;;1.80;1.25;;;3.10;99.90;;;;;;5036275;28;20223;-78
2023/01/17 02:21:17;;;;;;;12.57;1.40;;;3.10;99.90;;;;;;5036356;28;20584;-81
2023/01/17 02:24:15;;;;;;;1.13;1.13;;;3.10;99.90;;;;;;5036545;28;20572;-79
2023/01/17 02:26:57;;;;;;;0.60;0.60;;;2.90;99.90;;;;;;5040941;28;20708;-81
2023/01/17 02:29:52;;;;;;;1.08;1.02;;;2.50;99.90;;;;;;5038099;28;20179;-80
2023/01/17 02:32:32;;;;;;;0.50;0.40;;;2.00;99.90;;;;;;5036277;28;20204;-77
2023/01/17 02:35:05;;;;;;;0.60;0.40;;;1.60;99.90;;;;;;5035402;28;20195;-80
2023/01/17 02:37:40;;;;;;;0.50;0.40;;;1.40;99.90;;;;;;5035867;28;20219;-80
2023/01/17 02:40:14;;;;;;;0.77;0.73;;;1.30;99.90;;;;;;5035875;28;20637;-82
2023/01/17 02:42:46;;;;;;;0.65;0.50;;;1.20;99.90;;;;;;5035758;28;20271;-81
2023/01/17 02:45:16;;;;;;;3.63;2.45;;;1.00;99.90;;;;;;5035604;28;20195;-82
2023/01/17 02:47:44;;;;;;;0.50;0.40;;;1.00;99.90;;;;;;5035673;28;20290;-80
2023/01/17 02:50:13;;;;;;;0.50;0.50;;;0.90;99.90;;;;;;5036289;28;20195;-81
2023/01/17 02:53:00;;;;;;;0.60;0.60;;;0.90;99.90;;;;;;5035580;28;20211;-83
2023/01/17 02:55:42;;;;;;;0.60;0.60;;;0.90;99.90;;;;;;5035835;28;20229;-81
2023/01/17 02:58:19;;;;;;;0.50;0.40;;;0.90;99.90;;;;;;5035930;28;20655;-84
2023/01/17 03:00:56;;;;;;;0.50;0.50;;;0.90;99.90;;;;;;5036461;28;20199;-83
2023/01/17 03:03:33;;;;;;;1.20;1.00;;;0.90;99.90;;;;;;5036193;28;20231;-81
2023/01/17 03:06:10;;;;;;;1.25;1.08;;;0.90;99.90;;;;;;5034716;28;20225;-81
2023/01/17 03:08:39;;;;;;;1.33;0.80;;;0.90;99.90;;;;;;5035823;28;20607;-83
2023/01/17 03:11:08;;;;;;;0.75;0.75;;;0.90;99.90;;;;;;5036787;28;20980;-82
2023/01/17 03:13:35;;;;;;;0.50;0.40;;;0.90;99.90;;;;;;5037888;28;20200;-85
2023/01/17 03:16:05;;;;;;;0.57;0.57;;;1.00;99.90;;;;;;5038382;28;20219;-84
2023/01/17 03:18:33;;;;;;;1.45;1.35;;;1.00;99.90;;;;;;5039979;28;20191;-85
2023/01/17 03:21:00;;;;;;;0.77;0.68;;;1.00;99.90;;;;;;5041862;28;20290;-82
2023/01/17 03:23:27;;;;;;;0.50;0.50;;;1.10;99.90;;;;;;5043523;28;20267;-84
2023/01/17 03:25:54;;;;;;;0.50;0.40;;;1.10;99.90;;;;;;5045692;28;20215;-84
2023/01/17 03:28:21;;;;;;;0.52;0.40;;;1.20;99.90;;;;;;5047846;28;20196;-84
2023/01/17 03:30:47;;;;;;;0.40;0.40;;;1.20;99.90;;;;;;5047488;28;20286;-85
2023/01/17 03:33:17;;;;;;;0.70;0.70;;;1.20;99.90;;;;;;5045641;28;20285;-84
2023/01/17 03:35:47;;;;;;;1.00;1.00;;;1.20;99.90;;;;;;5046979;28;20211;-84
2023/01/17 03:38:14;;;;;;;0.52;0.52;;;1.20;99.90;;;;;;5043938;28;20184;-82
2023/01/17 03:40:41;;;;;;;0.88;0.88;;;1.20;99.90;;;;;;5044448;28;20187;-83
2023/01/17 03:43:08;;;;;;;0.40;0.40;;;1.20;99.90;;;;;;5042318;28;20251;-82
2023/01/17 03:45:35;;;;;;;1.23;1.05;;;1.30;99.90;;;;;;5043196;28;20239;-83
2023/01/17 03:48:02;;;;;;;0.47;0.40;;;1.30;99.90;;;;;;5044017;28;20259;-84
2023/01/17 03:50:29;;;;;;;0.40;0.40;;;1.30;99.90;;;;;;5045058;28;20218;-84
2023/01/17 03:52:57;;;;;;;1.83;0.95;;;1.30;99.90;;;;;;5046290;28;20219;-82
2023/01/17 03:55:24;;;;;;;0.50;0.50;;;1.40;99.90;;;;;;5048384;28;20207;-84
2023/01/17 03:57:51;;;;;;;0.40;0.40;;;1.40;99.90;;;;;;5047343;28;20223;-81
2023/01/17 04:00:19;;;;;;;0.50;0.40;;;1.40;99.90;;;;;;5043109;28;20715;-79
2023/01/17 04:02:46;;;;;;;1.13;0.70;;;1.40;99.90;;;;;;5040782;28;20211;-82
2023/01/17 04:05:13;;;;;;;0.82;0.82;;;1.40;99.90;;;;;;5040018;28;20537;-80
2023/01/17 04:07:40;;;;;;;1.05;0.95;;;1.50;99.90;;;;;;5044220;28;20237;-81
2023/01/17 04:10:09;;;;;;;0.50;0.50;;;1.50;99.90;;;;;;5043717;28;20294;-84
2023/01/17 04:12:37;;;;;;;2.72;1.70;;;1.50;99.90;;;;;;5039723;28;20215;-82
2023/01/17 04:15:04;;;;;;;1.05;1.00;;;1.40;99.90;;;;;;5039289;28;20615;-81
2023/01/17 04:17:32;;;;;;;0.73;0.50;;;1.40;99.90;;;;;;5038838;28;20310;-81
2023/01/17 04:19:59;;;;;;;4.00;2.08;;;1.40;99.90;;;;;;5040390;28;20303;-83
2023/01/17 04:22:26;;;;;;;0.93;0.80;;;1.50;99.90;;;;;;5038664;28;20192;-82
2023/01/17 04:24:53;;;;;;;0.57;0.57;;;1.50;99.90;;;;;;5037758;28;20233;-81
2023/01/17 04:27:21;;;;;;;3.10;2.75;;;1.50;99.90;;;;;;5037627;28;21087;-83
2023/01/17 04:29:48;;;;;;;2.05;1.75;;;1.50;99.90;;;;;;5038343;28;20259;-82
2023/01/17 04:32:15;;;;;;;0.45;0.45;;;1.50;99.90;;;;;;5038157;28;20274;-83
2023/01/17 04:34:42;;;;;;;2.88;2.25;;;1.60;99.90;;;;;;5038072;28;20191;-83
2023/01/17 04:37:08;;;;;;;2.15;1.80;;;1.60;99.90;;;;;;5036985;28;20219;-82
2023/01/17 04:39:35;;;;;;;2.15;1.50;;;1.70;99.90;;;;;;5037429;28;20195;-82
2023/01/17 04:42:02;;;;;;;0.82;0.82;;;1.70;99.90;;;;;;5036962;28;20246;-82
2023/01/17 04:44:30;;;;;;;1.27;1.17;;;1.70;99.90;;;;;;5037128;28;20199;-82
2023/01/17 04:46:57;;;;;;;1.63;1.10;;;1.70;99.90;;;;;;5037486;28;20233;-82
2023/01/17 04:49:24;;;;;;;1.30;0.98;;;1.70;99.90;;;;;;5037125;28;20202;-81
2023/01/17 04:51:51;;;;;;;0.50;0.50;;;1.70;99.90;;;;;;5036775;28;20283;-82
2023/01/17 04:54:18;;;;;;;0.95;0.63;;;1.70;99.90;;;;;;5037174;28;20206;-82
2023/01/17 04:56:45;;;;;;;1.25;1.15;;;1.70;99.90;;;;;;5036860;28;20248;-83
2023/01/17 04:59:11;;;;;;;0.93;0.90;;;1.70;99.90;;;;;;5036335;28;20241;-82
2023/01/17 05:01:40;;;;;;;1.13;0.80;;;1.80;99.90;;;;;;5036962;28;20227;-82
2023/01/17 05:04:07;;;;;;;3.17;2.30;;;1.70;99.90;;;;;;5036101;28;20199;-82
2023/01/17 05:06:33;;;;;;;0.88;0.88;;;1.70;99.90;;;;;;5035906;28;20273;-81
2023/01/17 05:09:01;;;;;;;0.50;0.45;;;1.70;99.90;;;;;;5035936;28;20259;-83
2023/01/17 05:11:28;;;;;;;0.70;0.70;;;1.70;99.90;;;;;;5036682;28;20199;-81
2023/01/17 05:13:55;;;;;;;2.50;2.10;;;1.60;99.90;;;;;;5035653;28;20687;-84
2023/01/17 05:16:22;;;;;;;0.63;0.63;;;1.60;99.90;;;;;;5035501;28;20222;-83
2023/01/17 05:18:52;;;;;;;0.50;0.50;;;1.60;99.90;;;;;;5035484;28;20202;-82
2023/01/17 05:21:19;;;;;;;1.45;1.13;;;1.60;99.90;;;;;;5036069;28;20731;-83
2023/01/17 05:23:46;;;;;;;0.50;0.50;;;1.60;99.90;;;;;;5035904;28;20195;-81
2023/01/17 05:26:13;;;;;;;0.50;0.50;;;1.60;99.90;;;;;;5035967;28;20302;-81
2023/01/17 05:28:40;;;;;;;0.70;0.70;;;1.50;99.90;;;;;;5035822;28;20201;-83
2023/01/17 05:31:07;;;;;;;1.85;1.75;;;1.50;99.90;;;;;;5035934;28;20234;-80
2023/01/17 05:33:34;;;;;;;0.50;0.50;;;1.50;99.90;;;;;;5035528;28;20755;-83
2023/01/17 05:36:03;;;;;;;3.20;2.35;;;1.50;99.90;;;;;;5035663;28;20211;-80
2023/01/17 05:38:30;;;;;;;1.33;0.60;;;1.50;99.90;;;;;;5036195;28;20203;-80
2023/01/17 05:40:59;;;;;;;0.88;0.88;;;1.50;99.90;;;;;;5035657;28;20302;-84
2023/01/17 05:43:26;;;;;;;0.98;0.98;;;1.50;99.90;;;;;;5036232;28;20187;-81
2023/01/17 05:45:52;;;;;;;0.40;0.40;;;1.50;99.90;;;;;;5034765;28;20283;-81
2023/01/17 05:48:19;;;;;;;2.78;1.25;;;1.50;99.90;;;;;;5036239;28;20282;-82
2023/01/17 05:50:47;;;;;;;0.50;0.50;;;1.40;99.90;;;;;;5036108;28;20736;-79
2023/01/17 05:53:16;;;;;;;0.60;0.60;;;1.40;99.90;;;;;;5036013;28;20225;-80
2023/01/17 05:55:43;;;;;;;0.80;0.70;;;1.40;99.90;;;;;;5035957;28;20219;-78
2023/01/17 05:58:14;;;;;;;1.48;1.35;;;1.50;99.90;;;;;;5039967;28;20267;-80
2023/01/17 06:00:41;;;;;;;5.38;3.53;;;1.50;99.90;;;;;;5036905;28;20219;-82
2023/01/17 06:03:08;;;;;;;1.80;1.70;;;1.50;99.90;;;;;;5036052;28;20194;-83
2023/01/17 06:05:35;;;;;;;4.65;4.35;;;1.50;99.90;;;;;;5036045;28;20258;-79
2023/01/17 06:08:02;;;;;;;2.45;2.35;;;1.50;99.90;;;;;;5035659;28;20197;-80
2023/01/17 06:10:30;;;;;;;2.38;1.35;;;1.50;99.90;;;;;;5036703;28;20601;-79
2023/01/17 06:13:01;;;;;;;0.60;0.40;;;1.50;99.90;;;;;;5036229;28;20215;-81
2023/01/17 06:15:28;;;;;;;2.15;1.08;;;1.50;99.90;;;;;;5035791;28;20290;-81
2023/01/17 06:17:55;;;;;;;1.17;1.08;;;1.60;99.90;;;;;;5036121;28;20199;-81
2023/01/17 06:20:22;;;;;;;4.32;1.40;;;1.60;99.90;;;;;;5036751;28;20202;-81
2023/01/17 06:22:49;;;;;;;2.20;2.05;;;1.60;99.90;;;;;;5036696;28;20625;-79
2023/01/17 06:25:15;;;;;;;1.17;0.88;;;1.70;99.90;;;;;;5036269;28;20263;-83
2023/01/17 06:27:44;;;;;;;0.50;0.40;;;1.70;99.90;;;;;;5036813;28;20664;-79
2023/01/17 06:30:11;;;;;;;0.65;0.65;;;1.70;99.90;;;;;;5036234;28;20596;-79
2023/01/17 06:32:38;;;;;;;2.05;1.23;;;1.70;99.90;;;;;;5036197;28;20271;-79
2023/01/17 06:35:06;;;;;;;2.35;2.15;;;1.70;99.90;;;;;;5036100;28;20196;-80
2023/01/17 06:37:32;;;;;;;3.88;3.63;;;1.60;99.90;;;;;;5036919;28;20215;-80
2023/01/17 06:39:59;;;;;;;1.13;1.13;;;1.60;99.90;;;;;;5035615;28;20202;-80
2023/01/17 06:42:26;;;;;;;2.55;2.42;;;1.60;99.90;;;;;;5036037;28;20290;-79
2023/01/17 06:44:54;;;;;;;1.67;1.58;;;1.60;99.90;;;;;;5035484;28;20291;-81
2023/01/17 06:47:21;;;;;;;5.75;4.32;;;1.60;99.90;;;;;;5036103;28;20279;-83
2023/01/17 06:49:48;;;;;;;3.30;2.50;;;1.60;99.90;;;;;;5036724;28;20203;-79
2023/01/17 06:52:15;;;;;;;0.40;0.40;;;1.60;99.90;;;;;;5036741;28;20306;-80
2023/01/17 06:54:41;;;;;;;3.70;3.40;;;1.60;99.90;;;;;;5035263;28;20199;-81
2023/01/17 06:57:08;;;;;;;4.10;2.25;;;1.50;99.90;;;;;;5036311;28;20251;-79
2023/01/17 06:59:35;;;;;;;1.92;1.45;;;1.50;99.90;;;;;;5035867;28;20294;-79
2023/01/17 07:02:03;;;;;;;0.80;0.80;;;1.50;99.90;;;;;;5036607;28;20267;-80
2023/01/17 07:04:30;;;;;;;4.82;3.75;;;1.40;99.90;;;;;;5036277;28;20230;-81
2023/01/17 07:06:57;;;;;;;2.50;1.52;;;1.40;99.90;;;;;;5035007;28;20215;-80
2023/01/17 07:09:24;;;;;;;0.98;0.90;;;1.50;99.90;;;;;;5032188;28;20286;-80
2023/01/17 07:11:58;;;;;;;2.67;2.58;;;1.50;99.90;;;;;;5015630;28;20224;-81
2023/01/17 07:14:25;;;;;;;0.55;0.55;;;1.60;99.90;;;;;;5015251;28;20177;-81
2023/01/17 07:16:52;;;;;;;2.20;2.03;;;1.70;99.90;;;;;;5015710;28;20721;-80
2023/01/17 07:19:20;;;;;;;0.50;0.50;;;1.70;99.90;;;;;;5034410;28;20195;-82
2023/01/17 07:21:50;;;;;;;0.70;0.70;;;1.70;99.90;;;;;;5035033;28;20299;-80
2023/01/17 07:24:17;;;;;;;3.97;2.88;;;1.70;99.90;;;;;;5035071;28;20230;-83
2023/01/17 07:26:44;;;;;;;0.50;0.50;;;1.80;99.90;;;;;;5036176;28;20251;-81
2023/01/17 07:29:10;;;;;;;0.55;0.55;;;1.80;99.90;;;;;;5038677;28;20282;-79
2023/01/17 07:31:39;;;;;;;0.50;0.40;;;1.80;99.90;;;;;;5036464;28;20222;-80
2023/01/17 07:34:06;;;;;;;0.50;0.40;;;1.80;99.90;;;;;;5037023;28;20374;-81
2023/01/17 07:36:35;;;;;;;1.30;1.20;;;1.80;99.90;;;;;;5036630;28;20219;-80
2023/01/17 07:39:02;;;;;;;2.47;2.38;;;1.80;99.90;;;;;;5038423;28;20322;-80
2023/01/17 07:41:31;;;;;;;0.50;0.40;;;1.90;99.90;;;;;;5038357;28;20660;-81
2023/01/17 07:43:59;;;;;;;0.50;0.50;;;1.80;99.90;;;;;;5040941;28;20689;-80
2023/01/17 07:46:26;;;;;;;0.50;0.45;;;1.90;99.90;;;;;;5041161;28;20238;-80
2023/01/17 07:48:53;;;;;;;6.88;3.58;;;1.90;99.90;;;;;;5042798;28;20193;-80
2023/01/17 07:51:19;;;;;;;4.28;3.17;;;1.90;99.90;;;;;;5043886;28;20932;-81
2023/01/17 07:53:48;;;;;;;5.45;3.70;;;1.90;99.90;;;;;;5043023;28;20235;-77
2023/01/17 07:56:14;;;;;;;0.50;0.40;;;1.80;99.90;;;;;;5042526;28;20310;-79
2023/01/17 07:58:41;;;;;;;1.05;1.05;;;1.80;99.90;;;;;;5042975;28;20227;-82
2023/01/17 08:01:10;;;;;;;1.83;1.73;;;1.90;99.90;;;;;;5041819;28;20229;-81
2023/01/17 08:03:39;;;;;;;0.80;0.80;;;1.90;99.90;;;;;;5042932;28;20687;-79
2023/01/17 08:06:07;;;;;;;3.42;2.80;;;1.90;99.90;;;;;;5041538;28;20836;-81
2023/01/17 08:08:34;;;;;;;1.50;0.93;;;1.90;99.90;;;;;;5042942;28;20226;-82
2023/01/17 08:11:02;;;;;;;6.95;2.80;;;1.80;99.90;;;;;;5043430;28;20203;-80
2023/01/17 08:13:29;;;;;;;2.55;2.05;;;1.90;99.90;;;;;;5043685;28;20298;-81
2023/01/17 08:15:56;;;;;;;4.10;3.85;;;1.90;99.90;;;;;;5044094;28;20251;-82
2023/01/17 08:18:23;;;;;;;19.58;7.40;;;1.80;99.90;;;;;;5047279;28;20195;-80
2023/01/17 08:20:49;;;;;;;1.02;1.02;;;1.70;99.90;;;;;;5041779;28;20206;-81
2023/01/17 08:23:16;;;;;;;28.00;3.25;;;1.70;99.90;;;;;;5042400;28;20258;-81
2023/01/17 08:25:43;;;;;;;2.60;2.38;;;1.70;99.90;;;;;;5041481;28;20631;-81
2023/01/17 08:28:14;;;;;;;5.80;2.80;;;1.80;99.90;;;;;;5041792;28;20735;-80
2023/01/17 08:30:41;;;;;;;5.85;3.50;;;1.80;99.90;;;;;;5041506;28;20610;-81
2023/01/17 08:33:08;;;;;;;1.10;0.80;;;1.80;99.90;;;;;;5042398;28;20330;-80
2023/01/17 08:35:35;;;;;;;4.60;2.75;;;1.80;99.90;;;;;;5041486;28;20249;-81
2023/01/17 08:38:03;;;;;;;7.45;6.47;;;1.80;99.90;;;;;;5042101;28;20202;-82
2023/01/17 08:40:31;;;;;;;6.32;3.55;;;1.80;99.90;;;;;;5042881;28;20199;-84
2023/01/17 08:43:00;;;;;;;0.73;0.73;;;1.80;99.90;;;;;;5048933;28;20199;-81
2023/01/17 08:45:28;;;;;;;16.15;7.55;;;1.80;99.90;;;;;;5052178;28;20226;-81
2023/01/17 08:47:58;;;;;;;8.75;4.05;;;1.90;99.90;;;;;;5050592;28;20209;-80
2023/01/17 08:50:25;;;;;;;1.15;1.05;;;1.90;99.90;;;;;;5048364;28;20221;-80
2023/01/17 08:52:58;;;;;;;13.15;7.55;;;1.90;99.90;;;;;;5040628;28;20219;-82
2023/01/17 08:55:25;;;;;;;6.88;5.85;;;1.90;99.90;;;;;;5040657;28;20176;-82
2023/01/17 08:57:52;;;;;;;3.45;3.25;;;1.80;99.90;;;;;;5040779;28;20199;-80
2023/01/17 09:00:19;;;;;;;6.82;5.57;;;1.80;99.90;;;;;;5041176;28;20242;-80
2023/01/17 09:02:50;;;;;;;7.85;4.97;;;1.80;99.90;;;;;;5040270;28;20199;-79
2023/01/17 09:05:17;;;;;;;3.72;3.50;;;1.80;99.90;;;;;;5040309;28;20726;-80
2023/01/17 09:07:44;;;;;;;3.33;3.13;;;2.00;99.90;;;;;;5039916;28;20214;-82
2023/01/17 09:10:11;;;;;;;4.15;3.85;;;2.00;99.90;;;;;;5040458;28;20195;-81
2023/01/17 09:12:39;;;;;;;7.82;5.43;;;2.00;99.90;;;;;;5040562;28;20199;-82
2023/01/17 09:15:07;;;;;;;6.85;6.00;;;2.00;99.90;;;;;;5039687;28;20282;-82
2023/01/17 09:17:34;;;;;;;12.25;6.95;;;2.10;99.90;;;;;;5040554;28;20277;-81
2023/01/17 09:20:02;;;;;;;14.45;4.70;;;2.40;99.90;;;;;;5040979;28;20668;-81
2023/01/17 09:22:29;;;;;;;2.15;2.00;;;2.40;99.90;;;;;;5041239;28;20198;-81
2023/01/17 09:24:56;;;;;;;3.92;2.88;;;2.80;99.90;;;;;;5040781;28;20196;-81
2023/01/17 09:27:23;;;;;;;8.35;7.38;;;3.10;99.90;;;;;;5041603;28;20249;-82
2023/01/17 09:29:49;;;;;;;8.32;6.65;;;3.60;99.90;;;;;;5041612;28;20720;-82
2023/01/17 09:32:16;;;;;;;17.33;4.70;;;3.80;99.90;;;;;;5041609;28;20263;-80
2023/01/17 09:34:43;;;;;;;11.70;7.30;;;3.30;99.90;;;;;;5039775;28;20222;-80
2023/01/17 09:37:12;;;;;;;7.78;3.58;;;3.00;99.90;;;;;;5040746;28;20245;-83
2023/01/17 09:39:38;;;;;;;9.52;6.78;;;2.70;99.90;;;;;;5040406;28;20199;-79
2023/01/17 09:42:30;;;;;;;4.95;2.38;;;2.50;99.90;;;;;;5040468;28;20230;-81
2023/01/17 09:44:58;;;;;;;4.28;3.78;;;2.60;99.90;;;;;;5039664;28;20298;-80
2023/01/17 09:47:32;;;;;;;2.55;2.35;;;2.80;99.90;;;;;;5039662;28;20644;-80
2023/01/17 09:50:11;;;;;;;8.63;1.85;;;3.00;99.90;;;;;;5039727;28;20211;-81
2023/01/17 09:52:39;;;;;;;6.82;4.95;;;3.00;99.90;;;;;;5039851;28;20716;-78
2023/01/17 09:55:12;;;;;;;4.95;4.65;;;3.20;99.90;;;;;;5039671;28;20215;-81
2023/01/17 09:57:46;;;;;;;4.72;2.72;;;3.40;99.90;;;;;;5040454;28;20191;-80
2023/01/17 10:00:30;;;;;;;9.43;6.30;;;3.70;99.90;;;;;;5039960;28;20740;-81
2023/01/17 10:03:15;;;;;;;3.28;2.85;;;3.80;99.90;;;;;;5041474;28;20210;-81
2023/01/17 10:05:58;;;;;;;3.83;3.58;;;3.90;99.90;;;;;;5040673;28;20712;-80
2023/01/17 10:08:40;;;;;;;4.78;3.53;;;3.90;99.90;;;;;;5041325;28;20188;-78
2023/01/17 10:11:25;;;;;;;4.00;1.85;;;3.70;99.90;;;;;;5042102;28;20226;-81
2023/01/17 10:13:59;;;;;;;0.75;0.75;;;3.80;99.90;;;;;;5041077;28;20298;-79
2023/01/17 10:16:36;;;;;;;2.45;1.98;;;3.90;99.90;;;;;;5040303;28;20595;-78
2023/01/17 10:19:35;;;;;;;4.05;3.75;;;3.90;99.90;;;;;;5042550;28;20223;-79
2023/01/17 10:22:19;;;;;;;2.17;2.08;;;3.70;99.90;;;;;;5041597;28;20231;-82
2023/01/17 10:25:22;;;;;;;6.18;4.30;;;3.60;99.90;;;;;;5041420;28;20649;-79
2023/01/17 10:27:57;;;;;;;0.98;0.60;;;3.30;99.90;;;;;;5042736;28;20199;-83
2023/01/17 10:30:29;;;;;;;2.03;1.83;;;3.10;99.90;;;;;;5042127;28;20233;-78
2023/01/17 10:33:02;;;;;;;3.28;2.80;;;3.20;99.90;;;;;;5040064;28;20179;-79
2023/01/17 10:35:33;;;;;;;8.85;4.07;;;3.30;99.90;;;;;;5039960;28;20218;-81
2023/01/17 10:38:03;;;;;;;3.17;2.05;;;3.30;99.90;;;;;;5041064;28;20214;-81
2023/01/17 10:40:40;;;;;;;1.80;1.70;;;3.50;99.90;;;;;;5040821;28;20215;-80
2023/01/17 10:43:15;;;;;;;10.60;3.17;;;3.70;99.90;;;;;;5041808;28;20271;-80
2023/01/17 10:45:48;;;;;;;3.60;2.03;;;4.00;99.90;;;;;;5040133;28;20214;-78
2023/01/17 10:48:20;;;;;;;2.33;2.22;;;4.50;99.90;;;;;;5041878;28;20184;-80
2023/01/17 10:50:55;;;;;;;6.05;2.00;;;4.60;99.90;;;;;;5050228;28;20247;-78
2023/01/17 10:53:39;;;;;;;4.03;3.70;;;4.80;99.90;;;;;;5049848;28;20202;-79
2023/01/17 10:56:09;;;;;;;4.20;2.38;;;4.80;99.90;;;;;;5040523;28;20298;-82
2023/01/17 10:58:36;;;;;;;4.28;2.35;;;4.90;99.90;;;;;;5040518;28;20191;-80
2023/01/17 11:01:12;;;;;;;2.05;1.95;;;5.30;99.90;;;;;;5040123;28;20209;-81
2023/01/17 11:03:41;;;;;;;1.65;1.55;;;5.70;99.90;;;;;;5039038;28;20249;-80
2023/01/17 11:06:20;;;;;;;1.63;1.52;;;5.70;99.90;;;;;;5039317;28;20219;-81
2023/01/17 11:08:52;;;;;;;8.98;5.28;;;5.40;99.90;;;;;;5039809;28;20226;-83
2023/01/17 11:11:23;;;;;;;1.60;1.50;;;5.30;99.90;;;;;;5040245;28;20272;-80
2023/01/17 11:13:53;;;;;;;1.50;1.40;;;5.20;99.90;;;;;;5039048;28;20297;-81
2023/01/17 11:16:22;;;;;;;1.77;1.67;;;5.50;99.90;;;;;;5039534;28;20615;-81
2023/01/17 11:19:06;;;;;;;1.55;1.55;;;5.90;99.90;;;;;;5043541;28;20198;-79
2023/01/17 11:21:33;;;;;;;3.72;1.70;;;6.00;99.90;;;;;;5043394;28;20183;-79
2023/01/17 11:24:09;;;;;;;0.70;0.70;;;5.80;99.90;;;;;;5042559;28;20259;-82
2023/01/17 11:26:46;;;;;;;2.10;1.98;;;5.80;99.90;;;;;;5043277;28;20269;-81
2023/01/17 11:29:30;;;;;;;0.50;0.50;;;5.70;99.90;;;;;;5043608;28;20206;-80
2023/01/17 11:31:57;;;;;;;10.00;2.20;;;5.50;99.90;;;;;;5043180;28;20191;-80
2023/01/17 11:34:28;;;;;;;2.35;1.75;;;5.20;99.90;;;;;;5042896;28;20211;-81
2023/01/17 11:37:16;;;;;;;0.70;0.70;;;5.00;99.90;;;;;;5041710;28;20262;-81
2023/01/17 11:39:46;;;;;;;1.50;1.13;;;5.00;99.90;;;;;;5045470;28;20485;-80
2023/01/17 11:42:33;;;;;;;0.70;0.70;;;5.10;99.90;;;;;;5043353;28;20195;-79
2023/01/17 11:45:24;;;;;;;0.50;0.50;;;5.20;99.90;;;;;;5042251;28;20183;-80
2023/01/17 11:48:11;;;;;;;2.50;2.30;;;5.30;99.90;;;;;;5042985;28;20219;-80
2023/01/17 11:50:40;;;;;;;1.10;1.10;;;5.60;99.90;;;;;;5041953;28;20195;-82
2023/01/17 11:53:17;;;;;;;1.58;1.48;;;6.00;99.90;;;;;;5040870;28;20207;-81
2023/01/17 11:55:56;;;;;;;3.65;2.17;;;6.50;99.90;;;;;;5043941;28;20665;-79
2023/01/17 11:58:27;;;;;;;0.50;0.40;;;6.70;99.90;;;;;;5042408;28;20175;-80
2023/01/17 12:01:00;;;;;;;1.80;1.70;;;6.90;99.90;;;;;;5043208;28;20188;-81
2023/01/17 12:04:07;;;;;;;0.50;0.40;;;7.20;99.90;;;;;;5042456;28;20636;-81
2023/01/17 12:06:44;;;;;;;3.35;1.75;;;7.10;99.90;;;;;;5041491;28;20302;-82
2023/01/17 12:09:21;;;;;;;0.50;0.40;;;7.30;99.90;;;;;;5042658;28;20234;-81
2023/01/17 12:14:55;;;;;;;0.60;0.57;;;7.50;99.90;;;;;;5042114;28;20222;-82
2023/01/17 12:17:33;;;;;;;0.63;0.63;;;7.20;99.90;;;;;;5041744;28;20262;-80
2023/01/17 12:20:04;;;;;;;2.03;1.92;;;6.80;99.90;;;;;;5041014;28;20206;-81
2023/01/17 12:22:51;;;;;;;0.93;0.90;;;6.70;99.90;;;;;;5041981;28;20183;-79
2023/01/17 12:25:38;;;;;;;0.90;0.90;;;6.50;99.90;;;;;;5041864;28;20239;-80
2023/01/17 12:28:19;;;;;;;1.95;1.85;;;6.00;99.90;;;;;;5040418;28;20732;-80
2023/01/17 12:31:06;;;;;;;0.50;0.40;;;5.80;99.90;;;;;;5040570;28;20270;-80
2023/01/17 12:33:44;;;;;;;2.10;1.73;;;5.90;99.90;;;;;;5041915;28;20258;-80
2023/01/17 12:36:31;;;;;;;0.80;0.80;;;6.00;99.90;;;;;;5041231;28;20211;-81
2023/01/17 12:39:03;;;;;;;4.35;1.40;;;6.30;99.90;;;;;;5041522;28;20195;-80
2023/01/17 12:41:34;;;;;;;2.13;1.92;;;6.50;99.90;;;;;;5041600;28;20278;-80
2023/01/17 12:44:02;;;;;;;0.80;0.80;;;6.60;99.90;;;;;;5041372;28;20582;-82
2023/01/17 12:46:37;;;;;;;1.45;1.35;;;6.60;99.90;;;;;;5041097;28;20215;-81
2023/01/17 12:49:24;;;;;;;0.50;0.40;;;6.60;99.90;;;;;;5040578;28;20179;-81
2023/01/17 12:51:57;;;;;;;1.20;0.80;;;6.70;99.90;;;;;;5040852;28;20214;-80
2023/01/17 12:54:31;;;;;;;0.80;0.70;;;6.80;99.90;;;;;;5040736;28;20376;-80
2023/01/17 12:57:03;;;;;;;0.70;0.70;;;6.70;99.90;;;;;;5041451;28;20226;-80
2023/01/17 12:59:35;;;;;;;0.50;0.40;;;6.90;99.90;;;;;;5040353;28;20204;-81
2023/01/17 13:02:14;;;;;;;0.93;0.93;;;7.00;99.90;;;;;;5043616;28;20179;-80
2023/01/17 13:04:46;;;;;;;1.52;1.45;;;7.10;99.90;;;;;;5052130;28;20473;-80
2023/01/17 13:07:28;;;;;;;2.88;1.70;;;6.80;99.90;;;;;;5043793;28;20247;-82
2023/01/17 13:10:02;;;;;;;0.60;0.60;;;6.40;99.90;;;;;;5041930;28;20274;-80
2023/01/17 13:12:32;;;;;;;1.77;1.67;;;6.10;99.90;;;;;;5040767;28;20180;-81
2023/01/17 13:15:01;;;;;;;5.20;1.58;;;6.00;99.90;;;;;;5039244;28;20270;-82
2023/01/17 13:17:37;;;;;;;0.52;0.52;;;6.10;99.90;;;;;;5039735;28;20227;-82
2023/01/17 13:20:15;;;;;;;0.50;0.40;;;6.30;99.90;;;;;;5039030;28;20195;-80
2023/01/17 13:22:43;;;;;;;0.82;0.60;;;6.50;99.90;;;;;;5040173;28;20207;-81
2023/01/17 13:25:28;;;;;;;1.05;1.05;;;6.60;99.90;;;;;;5046471;28;20262;-79
2023/01/17 13:28:07;;;;;;;0.60;0.50;;;6.60;99.90;;;;;;5052150;28;20202;-80
2023/01/17 13:30:54;;;;;;;0.50;0.50;;;6.60;99.90;;;;;;5050676;28;20183;-79
2023/01/17 13:33:52;;;;;;;0.50;0.40;;;6.60;99.90;;;;;;5048252;28;20199;-79
2023/01/17 13:36:33;;;;;;;0.50;0.40;;;6.60;99.90;;;;;;5047897;28;20238;-78
2023/01/17 13:39:21;;;;;;;0.50;0.40;;;6.20;99.90;;;;;;5049488;28;20279;-79
2023/01/17 13:41:52;;;;;;;1.35;1.25;;;6.20;99.90;;;;;;5046302;28;20215;-81
2023/01/17 13:44:23;;;;;;;0.50;0.40;;;6.60;99.90;;;;;;5048016;28;20206;-80
2023/01/17 13:46:59;;;;;;;0.60;0.60;;;7.00;99.90;;;;;;5046014;28;20222;-79
2023/01/17 13:49:44;;;;;;;0.60;0.50;;;7.60;99.90;;;;;;5047998;28;20199;-81
2023/01/17 13:52:27;;;;;;;1.40;0.63;;;8.10;99.90;;;;;;5046828;28;20206;-79
2023/01/17 13:54:55;;;;;;;1.13;0.88;;;8.40;99.90;;;;;;5047201;28;20233;-78
2023/01/17 13:57:40;;;;;;;1.17;1.02;;;8.90;99.90;;;;;;5048564;28;20219;-78
2023/01/17 14:00:40;;;;;;;0.70;0.70;;;8.80;99.90;;;;;;5048692;28;20199;-81
2023/01/17 14:03:11;;;;;;;1.88;1.77;;;8.50;99.90;;;;;;5044889;28;20183;-80
2023/01/17 14:05:56;;;;;;;0.50;0.40;;;7.70;99.90;;;;;;5039725;28;20218;-80
2023/01/17 14:08:26;;;;;;;0.50;0.40;;;7.10;99.90;;;;;;5040056;28;20279;-78
2023/01/17 14:11:03;;;;;;;1.90;1.13;;;6.70;99.90;;;;;;5039674;28;20203;-79
2023/01/17 14:13:35;;;;;;;1.00;0.90;;;6.20;99.90;;;;;;5039778;28;20720;-81
2023/01/17 14:16:03;;;;;;;0.88;0.88;;;5.80;99.90;;;;;;5038039;28;20253;-79
2023/01/17 14:18:33;;;;;;;0.50;0.50;;;5.40;99.90;;;;;;5039012;28;20199;-80
2023/01/17 14:21:10;;;;;;;1.50;0.88;;;5.10;99.90;;;;;;5038080;28;20205;-81
2023/01/17 14:23:58;;;;;;;0.50;0.40;;;4.90;99.90;;;;;;5037890;28;20179;-80
2023/01/17 14:26:43;;;;;;;0.50;0.50;;;4.70;99.90;;;;;;5038304;28;20216;-81
2023/01/17 14:29:47;;;;;;;2.35;2.25;;;4.50;99.90;;;;;;5038981;28;20287;-82
2023/01/17 14:32:16;;;;;;;0.50;0.40;;;4.30;99.90;;;;;;5038435;28;20259;-81
2023/01/17 14:34:44;;;;;;;0.68;0.68;;;4.20;99.90;;;;;;5037448;28;20250;-80
2023/01/17 14:37:34;;;;;;;0.50;0.40;;;4.10;99.90;;;;;;5037925;28;20221;-80
2023/01/17 14:40:01;;;;;;;0.50;0.50;;;4.00;99.90;;;;;;5040469;28;20527;-80
2023/01/17 14:42:31;;;;;;;0.50;0.50;;;3.90;99.90;;;;;;5039398;28;20196;-82